sensor_id;sensor_type;location;lat;lon;timestamp;pressure;altitude;pressure_sealevel;temperature
65272;BMP280;51868;48.812;8.198;2022-08-14T00:00:06;99955.56;;;22.79
65272;BMP280;51868;48.812;8.198;2022-08-14T00:02:33;99957.13;;;22.64
65272;BMP280;51868;48.812;8.198;2022-08-14T00:05:02;99960.03;;;22.56
65272;BMP280;51868;48.812;8.198;2022-08-14T00:07:29;99950.84;;;22.55
65272;BMP280;51868;48.812;8.198;2022-08-14T00:09:56;99952.28;;;22.52
65272;BMP280;51868;48.812;8.198;2022-08-14T00:12:23;99950.16;;;22.51
65272;BMP280;51868;48.812;8.198;2022-08-14T00:14:50;99949.50;;;22.48
65272;BMP280;51868;48.812;8.198;2022-08-14T00:17:17;99952.41;;;22.40
65272;BMP280;51868;48.812;8.198;2022-08-14T00:19:43;99945.34;;;22.35
65272;BMP280;51868;48.812;8.198;2022-08-14T00:22:11;99933.34;;;22.35
65272;BMP280;51868;48.812;8.198;2022-08-14T00:24:43;99946.75;;;22.40
65272;BMP280;51868;48.812;8.198;2022-08-14T00:27:10;99945.31;;;22.39
65272;BMP280;51868;48.812;8.198;2022-08-14T00:29:36;99949.59;;;22.38
65272;BMP280;51868;48.812;8.198;2022-08-14T00:32:04;99949.59;;;22.38
65272;BMP280;51868;48.812;8.198;2022-08-14T00:34:31;99941.13;;;22.36
65272;BMP280;51868;48.812;8.198;2022-08-14T00:36:57;99941.13;;;22.38
65272;BMP280;51868;48.812;8.198;2022-08-14T00:39:25;99943.25;;;22.36
65272;BMP280;51868;48.812;8.198;2022-08-14T00:41:54;99930.56;;;22.32
65272;BMP280;51868;48.812;8.198;2022-08-14T00:44:21;99932.69;;;22.30
65272;BMP280;51868;48.812;8.198;2022-08-14T00:46:47;99925.69;;;22.25
65272;BMP280;51868;48.812;8.198;2022-08-14T00:49:14;99919.38;;;22.16
65272;BMP280;51868;48.812;8.198;2022-08-14T00:51:42;99911.69;;;22.09
65272;BMP280;51868;48.812;8.198;2022-08-14T00:54:10;99926.56;;;22.01
65272;BMP280;51868;48.812;8.198;2022-08-14T00:56:38;99928.72;;;21.98
65272;BMP280;51868;48.812;8.198;2022-08-14T00:59:05;99930.13;;;21.95
65272;BMP280;51868;48.812;8.198;2022-08-14T01:01:34;99925.22;;;21.92
65272;BMP280;51868;48.812;8.198;2022-08-14T01:04:01;99926.69;;;21.87
65272;BMP280;51868;48.812;8.198;2022-08-14T01:06:29;99932.31;;;21.85
65272;BMP280;51868;48.812;8.198;2022-08-14T01:08:58;99928.81;;;21.82
65272;BMP280;51868;48.812;8.198;2022-08-14T01:11:25;99926.75;;;21.78
65272;BMP280;51868;48.812;8.198;2022-08-14T01:13:54;99918.31;;;21.68
65272;BMP280;51868;48.812;8.198;2022-08-14T01:16:25;99912.03;;;21.60
65272;BMP280;51868;48.812;8.198;2022-08-14T01:18:52;99909.19;;;21.60
65272;BMP280;51868;48.812;8.198;2022-08-14T01:21:39;99904.97;;;21.57
65272;BMP280;51868;48.812;8.198;2022-08-14T01:24:07;99907.81;;;21.55
65272;BMP280;51868;48.812;8.198;2022-08-14T01:26:35;99903.56;;;21.56
65272;BMP280;51868;48.812;8.198;2022-08-14T01:29:04;99906.41;;;21.58
65272;BMP280;51868;48.812;8.198;2022-08-14T01:31:33;99912.75;;;21.54
65272;BMP280;51868;48.812;8.198;2022-08-14T01:34:03;99899.38;;;21.48
65272;BMP280;51868;48.812;8.198;2022-08-14T01:36:30;99901.53;;;21.46
65272;BMP280;51868;48.812;8.198;2022-08-14T01:39:04;99900.81;;;21.43
65272;BMP280;51868;48.812;8.198;2022-08-14T01:41:32;99896.59;;;21.42
65272;BMP280;51868;48.812;8.198;2022-08-14T01:44:03;99888.88;;;21.37
65272;BMP280;51868;48.812;8.198;2022-08-14T01:46:32;99885.34;;;21.34
65272;BMP280;51868;48.812;8.198;2022-08-14T01:48:59;99882.53;;;21.32
65272;BMP280;51868;48.812;8.198;2022-08-14T01:51:27;99874.09;;;21.30
65272;BMP280;51868;48.812;8.198;2022-08-14T01:53:55;99884.69;;;21.27
65272;BMP280;51868;48.812;8.198;2022-08-14T01:56:26;99889.63;;;21.23
65272;BMP280;51868;48.812;8.198;2022-08-14T01:59:01;99875.53;;;21.19
65272;BMP280;51868;48.812;8.198;2022-08-14T02:01:27;99862.88;;;21.14
65272;BMP280;51868;48.812;8.198;2022-08-14T02:03:54;99871.34;;;21.10
65272;BMP280;51868;48.812;8.198;2022-08-14T02:08:49;99864.31;;;21.03
65272;BMP280;51868;48.812;8.198;2022-08-14T02:11:15;99865.03;;;21.01
65272;BMP280;51868;48.812;8.198;2022-08-14T02:13:45;99863.59;;;21.02
65272;BMP280;51868;48.812;8.198;2022-08-14T02:16:13;99862.22;;;20.97
65272;BMP280;51868;48.812;8.198;2022-08-14T02:18:42;99851.66;;;20.95
65272;BMP280;51868;48.812;8.198;2022-08-14T02:21:11;99848.88;;;20.91
65272;BMP280;51868;48.812;8.198;2022-08-14T02:23:38;99850.97;;;20.89
65272;BMP280;51868;48.812;8.198;2022-08-14T02:26:14;99840.41;;;20.85
65272;BMP280;51868;48.812;8.198;2022-08-14T02:28:41;99843.97;;;20.84
65272;BMP280;51868;48.812;8.198;2022-08-14T02:31:10;99841.84;;;20.82
65272;BMP280;51868;48.812;8.198;2022-08-14T02:33:37;99834.81;;;20.77
65272;BMP280;51868;48.812;8.198;2022-08-14T02:36:06;99836.25;;;20.72
65272;BMP280;51868;48.812;8.198;2022-08-14T02:38:34;99833.44;;;20.66
65272;BMP280;51868;48.812;8.198;2022-08-14T02:41:01;99830.63;;;20.62
65272;BMP280;51868;48.812;8.198;2022-08-14T02:43:28;99836.25;;;20.60
65272;BMP280;51868;48.812;8.198;2022-08-14T02:45:55;99840.53;;;20.59
65272;BMP280;51868;48.812;8.198;2022-08-14T02:48:23;99834.16;;;20.56
65272;BMP280;51868;48.812;8.198;2022-08-14T02:51:01;99840.50;;;20.57
65272;BMP280;51868;48.812;8.198;2022-08-14T02:53:29;99836.28;;;20.58
65272;BMP280;51868;48.812;8.198;2022-08-14T02:55:56;99834.88;;;20.59
65272;BMP280;51868;48.812;8.198;2022-08-14T02:58:24;99831.34;;;20.52
65272;BMP280;51868;48.812;8.198;2022-08-14T03:00:51;99836.28;;;20.47
65272;BMP280;51868;48.812;8.198;2022-08-14T03:03:18;99823.59;;;20.48
65272;BMP280;51868;48.812;8.198;2022-08-14T03:05:51;99817.97;;;20.46
65272;BMP280;51868;48.812;8.198;2022-08-14T03:08:18;99823.59;;;20.44
65272;BMP280;51868;48.812;8.198;2022-08-14T03:10:45;99817.97;;;20.44
65272;BMP280;51868;48.812;8.198;2022-08-14T03:13:12;99816.59;;;20.45
65272;BMP280;51868;48.812;8.198;2022-08-14T03:15:39;99813.75;;;20.43
65272;BMP280;51868;48.812;8.198;2022-08-14T03:18:09;99803.91;;;20.42
65272;BMP280;51868;48.812;8.198;2022-08-14T03:20:36;99812.38;;;20.40
65272;BMP280;51868;48.812;8.198;2022-08-14T03:23:04;99810.94;;;20.35
65272;BMP280;51868;48.812;8.198;2022-08-14T03:25:31;99822.25;;;20.29
65272;BMP280;51868;48.812;8.198;2022-08-14T03:28:00;99821.53;;;20.27
65272;BMP280;51868;48.812;8.198;2022-08-14T03:30:28;99818.00;;;20.30
65272;BMP280;51868;48.812;8.198;2022-08-14T03:32:58;99817.28;;;20.30
65272;BMP280;51868;48.812;8.198;2022-08-14T03:35:25;99816.59;;;20.27
65272;BMP280;51868;48.812;8.198;2022-08-14T03:37:52;99813.81;;;20.29
65272;BMP280;51868;48.812;8.198;2022-08-14T03:40:21;99810.28;;;20.27
65272;BMP280;51868;48.812;8.198;2022-08-14T03:42:49;99809.59;;;20.20
65272;BMP280;51868;48.812;8.198;2022-08-14T03:45:16;99812.41;;;20.16
65272;BMP280;51868;48.812;8.198;2022-08-14T03:47:43;99803.94;;;20.12
65272;BMP280;51868;48.812;8.198;2022-08-14T03:50:10;99798.31;;;20.04
65272;BMP280;51868;48.812;8.198;2022-08-14T03:52:38;99788.47;;;19.96
65272;BMP280;51868;48.812;8.198;2022-08-14T03:55:07;99788.50;;;19.94
65272;BMP280;51868;48.812;8.198;2022-08-14T03:57:37;99788.47;;;19.90
65272;BMP280;51868;48.812;8.198;2022-08-14T04:00:06;99784.25;;;19.89
65272;BMP280;51868;48.812;8.198;2022-08-14T04:02:33;99786.38;;;19.89
65272;BMP280;51868;48.812;8.198;2022-08-14T04:05:00;99783.56;;;19.83
65272;BMP280;51868;48.812;8.198;2022-08-14T04:07:27;99789.88;;;19.75
65272;BMP280;51868;48.812;8.198;2022-08-14T04:09:54;99798.31;;;19.73
65272;BMP280;51868;48.812;8.198;2022-08-14T04:12:20;99795.50;;;19.73
65272;BMP280;51868;48.812;8.198;2022-08-14T04:14:48;99801.84;;;19.74
65272;BMP280;51868;48.812;8.198;2022-08-14T04:17:17;99799.72;;;19.74
65272;BMP280;51868;48.812;8.198;2022-08-14T04:19:44;99803.94;;;19.75
65272;BMP280;51868;48.812;8.198;2022-08-14T04:22:11;99807.50;;;19.72
65272;BMP280;51868;48.812;8.198;2022-08-14T04:24:39;99806.06;;;19.66
65272;BMP280;51868;48.812;8.198;2022-08-14T04:27:07;99806.78;;;19.63
65272;BMP280;51868;48.812;8.198;2022-08-14T04:29:35;99805.38;;;19.62
65272;BMP280;51868;48.812;8.198;2022-08-14T04:32:04;99818.72;;;19.65
65272;BMP280;51868;48.812;8.198;2022-08-14T04:34:32;99815.19;;;19.73
65272;BMP280;51868;48.812;8.198;2022-08-14T04:36:59;99817.34;;;19.79
65272;BMP280;51868;48.812;8.198;2022-08-14T04:39:43;99813.09;;;19.82
65272;BMP280;51868;48.812;8.198;2022-08-14T04:42:27;99818.00;;;19.73
65272;BMP280;51868;48.812;8.198;2022-08-14T04:45:11;99816.59;;;19.64
65272;BMP280;51868;48.812;8.198;2022-08-14T04:47:42;99818.03;;;19.59
65272;BMP280;51868;48.812;8.198;2022-08-14T04:50:26;99809.56;;;19.61
65272;BMP280;51868;48.812;8.198;2022-08-14T04:52:53;99805.34;;;19.64
65272;BMP280;51868;48.812;8.198;2022-08-14T04:55:21;99802.56;;;19.68
65272;BMP280;51868;48.812;8.198;2022-08-14T04:57:48;99803.94;;;19.65
65272;BMP280;51868;48.812;8.198;2022-08-14T05:00:15;99796.88;;;19.64
65272;BMP280;51868;48.812;8.198;2022-08-14T05:02:43;99794.09;;;19.66
65272;BMP280;51868;48.812;8.198;2022-08-14T05:05:10;99798.31;;;19.69
65272;BMP280;51868;48.812;8.198;2022-08-14T05:07:36;99799.75;;;19.68
65272;BMP280;51868;48.812;8.198;2022-08-14T05:10:04;99791.28;;;19.68
65272;BMP280;51868;48.812;8.198;2022-08-14T05:12:31;99782.81;;;19.64
65272;BMP280;51868;48.812;8.198;2022-08-14T05:14:58;99782.84;;;19.62
65272;BMP280;51868;48.812;8.198;2022-08-14T05:17:24;99777.91;;;19.64
65272;BMP280;51868;48.812;8.198;2022-08-14T05:19:53;99779.31;;;19.59
65272;BMP280;51868;48.812;8.198;2022-08-14T05:22:19;99785.63;;;19.56
65272;BMP280;51868;48.812;8.198;2022-08-14T05:24:47;99787.06;;;19.59
65272;BMP280;51868;48.812;8.198;2022-08-14T05:27:14;99792.69;;;19.65
65272;BMP280;51868;48.812;8.198;2022-08-14T05:29:45;99787.78;;;19.74
65272;BMP280;51868;48.812;8.198;2022-08-14T05:32:12;99789.19;;;19.81
65272;BMP280;51868;48.812;8.198;2022-08-14T05:34:40;99794.09;;;19.90
65272;BMP280;51868;48.812;8.198;2022-08-14T05:37:08;99782.84;;;20.03
65272;BMP280;51868;48.812;8.198;2022-08-14T05:39:37;99784.22;;;20.22
65272;BMP280;51868;48.812;8.198;2022-08-14T05:42:05;99773.59;;;20.45
65272;BMP280;51868;48.812;8.198;2022-08-14T05:44:32;99772.84;;;20.61
65272;BMP280;51868;48.812;8.198;2022-08-14T05:46:59;99761.50;;;20.73
65272;BMP280;51868;48.812;8.198;2022-08-14T05:49:26;99767.81;;;20.82
65272;BMP280;51868;48.812;8.198;2022-08-14T05:51:53;99752.97;;;20.91
65272;BMP280;51868;48.812;8.198;2022-08-14T05:54:21;99764.16;;;21.01
65272;BMP280;51868;48.812;8.198;2022-08-14T05:56:48;99755.66;;;21.14
65272;BMP280;51868;48.812;8.198;2022-08-14T05:59:15;99754.88;;;21.25
65272;BMP280;51868;48.812;8.198;2022-08-14T06:01:41;99755.50;;;21.38
65272;BMP280;51868;48.812;8.198;2022-08-14T06:04:08;99755.41;;;21.50
65272;BMP280;51868;48.812;8.198;2022-08-14T06:06:34;99751.75;;;21.64
65272;BMP280;51868;48.812;8.198;2022-08-14T06:09:01;99743.13;;;21.81
65272;BMP280;51868;48.812;8.198;2022-08-14T06:11:30;99739.44;;;21.98
65272;BMP280;51868;48.812;8.198;2022-08-14T06:13:56;99727.22;;;22.18
65272;BMP280;51868;48.812;8.198;2022-08-14T06:16:24;99728.47;;;22.31
65272;BMP280;51868;48.812;8.198;2022-08-14T06:18:51;99721.31;;;22.39
65272;BMP280;51868;48.812;8.198;2022-08-14T06:21:17;99717.00;;;22.46
65272;BMP280;51868;48.812;8.198;2022-08-14T06:23:44;99711.19;;;22.56
65272;BMP280;51868;48.812;8.198;2022-08-14T06:26:10;99709.69;;;22.63
65272;BMP280;51868;48.812;8.198;2022-08-14T06:28:38;99706.03;;;22.71
65272;BMP280;51868;48.812;8.198;2022-08-14T06:31:05;99698.81;;;22.82
65272;BMP280;51868;48.812;8.198;2022-08-14T06:33:32;99694.44;;;22.91
65272;BMP280;51868;48.812;8.198;2022-08-14T06:35:58;99690.75;;;23.01
65272;BMP280;51868;48.812;8.198;2022-08-14T06:38:25;99684.88;;;23.13
65272;BMP280;51868;48.812;8.198;2022-08-14T06:40:52;99686.19;;;23.20
65272;BMP280;51868;48.812;8.198;2022-08-14T06:43:19;99677.41;;;23.36
65272;BMP280;51868;48.812;8.198;2022-08-14T06:45:48;99669.34;;;23.53
65272;BMP280;51868;48.812;8.198;2022-08-14T06:48:17;99665.50;;;23.69
65272;BMP280;51868;48.812;8.198;2022-08-14T06:50:47;99668.69;;;23.86
65272;BMP280;51868;48.812;8.198;2022-08-14T06:53:13;99675.50;;;24.01
65272;BMP280;51868;48.812;8.198;2022-08-14T06:55:42;99658.19;;;24.15
65272;BMP280;51868;48.812;8.198;2022-08-14T06:58:11;99660.00;;;24.31
65272;BMP280;51868;48.812;8.198;2022-08-14T07:00:38;99661.00;;;24.48
65272;BMP280;51868;48.812;8.198;2022-08-14T07:03:06;99663.69;;;24.55
65272;BMP280;51868;48.812;8.198;2022-08-14T07:05:50;99667.78;;;24.62
65272;BMP280;51868;48.812;8.198;2022-08-14T07:08:20;99669.78;;;24.67
65272;BMP280;51868;48.812;8.198;2022-08-14T07:10:52;99675.47;;;24.67
65272;BMP280;51868;48.812;8.198;2022-08-14T07:13:20;99679.56;;;24.74
65272;BMP280;51868;48.812;8.198;2022-08-14T07:15:51;99677.31;;;24.79
65272;BMP280;51868;48.812;8.198;2022-08-14T07:18:20;99685.72;;;24.83
65272;BMP280;51868;48.812;8.198;2022-08-14T07:20:47;99689.13;;;24.90
65272;BMP280;51868;48.812;8.198;2022-08-14T07:23:15;99682.97;;;25.10
65272;BMP280;51868;48.812;8.198;2022-08-14T07:25:43;99678.91;;;25.30
65272;BMP280;51868;48.812;8.198;2022-08-14T07:28:11;99671.88;;;25.54
65272;BMP280;51868;48.812;8.198;2022-08-14T07:30:38;99659.88;;;25.76
65272;BMP280;51868;48.812;8.198;2022-08-14T07:33:05;99659.25;;;25.99
65272;BMP280;51868;48.812;8.198;2022-08-14T07:35:34;99663.66;;;26.17
65272;BMP280;51868;48.812;8.198;2022-08-14T07:38:02;99665.16;;;26.38
65272;BMP280;51868;48.812;8.198;2022-08-14T07:40:29;99660.88;;;26.60
65272;BMP280;51868;48.812;8.198;2022-08-14T07:42:56;99673.16;;;26.78
65272;BMP280;51868;48.812;8.198;2022-08-14T07:45:23;99679.00;;;26.94
65272;BMP280;51868;48.812;8.198;2022-08-14T07:47:50;99680.09;;;27.04
65272;BMP280;51868;48.812;8.198;2022-08-14T07:50:18;99684.13;;;27.11
65272;BMP280;51868;48.812;8.198;2022-08-14T07:52:47;99670.94;;;27.22
65272;BMP280;51868;48.812;8.198;2022-08-14T07:55:15;99676.63;;;27.43
65272;BMP280;51868;48.812;8.198;2022-08-14T07:57:44;99672.28;;;27.65
65272;BMP280;51868;48.812;8.198;2022-08-14T08:00:14;99674.50;;;27.81
65272;BMP280;51868;48.812;8.198;2022-08-14T08:02:43;99676.25;;;27.72
65272;BMP280;51868;48.812;8.198;2022-08-14T08:05:11;99667.19;;;27.86
65272;BMP280;51868;48.812;8.198;2022-08-14T08:07:40;99670.66;;;28.07
65272;BMP280;51868;48.812;8.198;2022-08-14T08:10:11;99667.06;;;28.26
65272;BMP280;51868;48.812;8.198;2022-08-14T08:13:00;99656.34;;;28.45
65272;BMP280;51868;48.812;8.198;2022-08-14T08:15:29;99659.94;;;28.44
65272;BMP280;51868;48.812;8.198;2022-08-14T08:17:58;99661.00;;;28.53
65272;BMP280;51868;48.812;8.198;2022-08-14T08:20:25;99661.19;;;28.65
65272;BMP280;51868;48.812;8.198;2022-08-14T08:22:55;99646.06;;;28.86
65272;BMP280;51868;48.812;8.198;2022-08-14T08:25:25;99641.13;;;29.01
65272;BMP280;51868;48.812;8.198;2022-08-14T08:27:57;99635.13;;;29.24
65272;BMP280;51868;48.812;8.198;2022-08-14T08:30:25;99638.47;;;29.45
65272;BMP280;51868;48.812;8.198;2022-08-14T08:32:53;99641.19;;;29.64
65272;BMP280;51868;48.812;8.198;2022-08-14T08:35:23;99641.28;;;29.77
65272;BMP280;51868;48.812;8.198;2022-08-14T08:37:52;99633.09;;;29.83
65272;BMP280;51868;48.812;8.198;2022-08-14T08:40:26;99620.38;;;29.95
65272;BMP280;51868;48.812;8.198;2022-08-14T08:42:53;99628.59;;;30.18
65272;BMP280;51868;48.812;8.198;2022-08-14T08:45:20;99631.06;;;30.41
65272;BMP280;51868;48.812;8.198;2022-08-14T08:47:49;99632.28;;;30.59
65272;BMP280;51868;48.812;8.198;2022-08-14T08:50:18;99629.53;;;30.72
65272;BMP280;51868;48.812;8.198;2022-08-14T08:52:50;99631.84;;;30.82
65272;BMP280;51868;48.812;8.198;2022-08-14T08:55:26;99635.09;;;30.88
65272;BMP280;51868;48.812;8.198;2022-08-14T08:58:00;99625.47;;;30.94
65272;BMP280;51868;48.812;8.198;2022-08-14T09:00:36;99631.69;;;30.98
65272;BMP280;51868;48.812;8.198;2022-08-14T09:03:11;99634.34;;;31.03
65272;BMP280;51868;48.812;8.198;2022-08-14T09:05:49;99650.41;;;31.10
65272;BMP280;51868;48.812;8.198;2022-08-14T09:08:27;99644.94;;;31.19
65272;BMP280;51868;48.812;8.198;2022-08-14T09:10:56;99641.09;;;31.37
65272;BMP280;51868;48.812;8.198;2022-08-14T09:13:24;99638.84;;;31.52
65272;BMP280;51868;48.812;8.198;2022-08-14T09:15:52;99617.88;;;31.69
65272;BMP280;51868;48.812;8.198;2022-08-14T09:18:21;99596.97;;;31.83
65272;BMP280;51868;48.812;8.198;2022-08-14T09:20:50;99587.44;;;31.99
65272;BMP280;51868;48.812;8.198;2022-08-14T09:23:18;99579.38;;;32.14
65272;BMP280;51868;48.812;8.198;2022-08-14T09:25:47;99585.78;;;32.28
65272;BMP280;51868;48.812;8.198;2022-08-14T09:28:16;99583.69;;;32.39
65272;BMP280;51868;48.812;8.198;2022-08-14T09:30:47;99577.22;;;32.51
65272;BMP280;51868;48.812;8.198;2022-08-14T09:33:31;99578.09;;;32.60
65272;BMP280;51868;48.812;8.198;2022-08-14T09:36:09;99583.34;;;32.68
65272;BMP280;51868;48.812;8.198;2022-08-14T09:38:45;99575.34;;;32.82
65272;BMP280;51868;48.812;8.198;2022-08-14T09:41:28;99565.97;;;32.94
65272;BMP280;51868;48.812;8.198;2022-08-14T09:44:04;99563.22;;;32.92
65272;BMP280;51868;48.812;8.198;2022-08-14T09:46:31;99554.91;;;32.98
65272;BMP280;51868;48.812;8.198;2022-08-14T09:49:01;99555.75;;;33.07
65272;BMP280;51868;48.812;8.198;2022-08-14T09:51:28;99557.03;;;33.11
65272;BMP280;51868;48.812;8.198;2022-08-14T09:54:01;99550.88;;;33.17
65272;BMP280;51868;48.812;8.198;2022-08-14T09:56:42;99557.06;;;33.21
65272;BMP280;51868;48.812;8.198;2022-08-14T09:59:20;99552.69;;;33.22
65272;BMP280;51868;48.812;8.198;2022-08-14T10:01:54;99549.41;;;33.28
65272;BMP280;51868;48.812;8.198;2022-08-14T10:04:58;99544.66;;;33.35
65272;BMP280;51868;48.812;8.198;2022-08-14T10:07:31;99540.72;;;33.52
65272;BMP280;51868;48.812;8.198;2022-08-14T10:10:05;99521.28;;;33.63
65272;BMP280;51868;48.812;8.198;2022-08-14T10:12:43;99513.91;;;33.66
65272;BMP280;51868;48.812;8.198;2022-08-14T10:15:20;99505.41;;;33.64
65272;BMP280;51868;48.812;8.198;2022-08-14T10:17:47;99501.28;;;33.72
65272;BMP280;51868;48.812;8.198;2022-08-14T10:20:30;99492.81;;;33.80
65272;BMP280;51868;48.812;8.198;2022-08-14T10:23:08;99481.72;;;33.95
65272;BMP280;51868;48.812;8.198;2022-08-14T10:25:39;99493.16;;;34.06
65272;BMP280;51868;48.812;8.198;2022-08-14T10:28:08;99477.97;;;34.18
65272;BMP280;51868;48.812;8.198;2022-08-14T10:30:41;99475.50;;;34.23
65272;BMP280;51868;48.812;8.198;2022-08-14T10:33:23;99470.97;;;34.15
65272;BMP280;51868;48.812;8.198;2022-08-14T10:35:49;99452.72;;;34.19
65272;BMP280;51868;48.812;8.198;2022-08-14T10:38:25;99460.06;;;34.37
65272;BMP280;51868;48.812;8.198;2022-08-14T10:40:54;99472.91;;;34.59
65272;BMP280;51868;48.812;8.198;2022-08-14T10:43:23;99469.97;;;34.70
65272;BMP280;51868;48.812;8.198;2022-08-14T10:45:57;99470.72;;;34.79
65272;BMP280;51868;48.812;8.198;2022-08-14T10:48:26;99469.63;;;34.85
65272;BMP280;51868;48.812;8.198;2022-08-14T10:50:53;99464.31;;;34.79
65272;BMP280;51868;48.812;8.198;2022-08-14T10:53:29;99468.56;;;34.80
65272;BMP280;51868;48.812;8.198;2022-08-14T10:55:58;99463.09;;;34.76
65272;BMP280;51868;48.812;8.198;2022-08-14T10:58:28;99465.50;;;34.82
65272;BMP280;51868;48.812;8.198;2022-08-14T11:00:58;99459.91;;;34.80
65272;BMP280;51868;48.812;8.198;2022-08-14T11:03:36;99470.72;;;34.79
65272;BMP280;51868;48.812;8.198;2022-08-14T11:06:11;99460.59;;;34.80
65272;BMP280;51868;48.812;8.198;2022-08-14T11:08:40;99465.09;;;34.88
65272;BMP280;51868;48.812;8.198;2022-08-14T11:11:07;99458.91;;;34.94
65272;BMP280;51868;48.812;8.198;2022-08-14T11:13:34;99473.00;;;34.98
65272;BMP280;51868;48.812;8.198;2022-08-14T11:16:04;99459.97;;;34.99
65272;BMP280;51868;48.812;8.198;2022-08-14T11:18:30;99456.00;;;34.94
65272;BMP280;51868;48.812;8.198;2022-08-14T11:20:59;99457.06;;;34.99
65272;BMP280;51868;48.812;8.198;2022-08-14T11:23:30;99450.94;;;35.14
65272;BMP280;51868;48.812;8.198;2022-08-14T11:25:58;99448.44;;;35.18
65272;BMP280;51868;48.812;8.198;2022-08-14T11:28:27;99443.09;;;35.32
65272;BMP280;51868;48.812;8.198;2022-08-14T11:30:54;99439.25;;;35.35
65272;BMP280;51868;48.812;8.198;2022-08-14T11:33:24;99438.47;;;35.45
65272;BMP280;51868;48.812;8.198;2022-08-14T11:35:55;99439.75;;;35.57
65272;BMP280;51868;48.812;8.198;2022-08-14T11:38:25;99431.28;;;35.64
65272;BMP280;51868;48.812;8.198;2022-08-14T11:40:55;99433.88;;;35.68
65272;BMP280;51868;48.812;8.198;2022-08-14T11:43:23;99432.19;;;35.71
65272;BMP280;51868;48.812;8.198;2022-08-14T11:45:50;99439.59;;;35.59
65272;BMP280;51868;48.812;8.198;2022-08-14T11:48:19;99437.16;;;35.53
65272;BMP280;51868;48.812;8.198;2022-08-14T11:50:49;99430.41;;;35.56
65272;BMP280;51868;48.812;8.198;2022-08-14T11:53:21;99421.59;;;35.59
65272;BMP280;51868;48.812;8.198;2022-08-14T11:55:55;99423.69;;;35.69
65272;BMP280;51868;48.812;8.198;2022-08-14T11:58:27;99415.72;;;35.69
65272;BMP280;51868;48.812;8.198;2022-08-14T12:00:56;99408.81;;;35.75
65272;BMP280;51868;48.812;8.198;2022-08-14T12:03:34;99410.38;;;35.82
65272;BMP280;51868;48.812;8.198;2022-08-14T12:06:07;99410.91;;;35.85
65272;BMP280;51868;48.812;8.198;2022-08-14T12:08:35;99411.06;;;35.83
65272;BMP280;51868;48.812;8.198;2022-08-14T12:11:03;99400.19;;;35.83
65272;BMP280;51868;48.812;8.198;2022-08-14T12:13:31;99394.41;;;35.83
65272;BMP280;51868;48.812;8.198;2022-08-14T12:15:59;99389.78;;;35.78
65272;BMP280;51868;48.812;8.198;2022-08-14T12:21:50;99394.25;;;35.85
65272;BMP280;51868;48.812;8.198;2022-08-14T12:24:17;99382.56;;;35.88
65272;BMP280;51868;48.812;8.198;2022-08-14T12:26:53;99376.09;;;35.87
65272;BMP280;51868;48.812;8.198;2022-08-14T12:29:20;99376.94;;;35.85
65272;BMP280;51868;48.812;8.198;2022-08-14T12:31:57;99383.75;;;35.91
65272;BMP280;51868;48.812;8.198;2022-08-14T12:34:29;99381.91;;;35.96
65272;BMP280;51868;48.812;8.198;2022-08-14T12:37:03;99376.94;;;35.85
65272;BMP280;51868;48.812;8.198;2022-08-14T12:39:33;99381.63;;;35.80
65272;BMP280;51868;48.812;8.198;2022-08-14T12:42:00;99374.06;;;35.85
65272;BMP280;51868;48.812;8.198;2022-08-14T12:44:33;99375.72;;;35.82
65272;BMP280;51868;48.812;8.198;2022-08-14T12:47:07;99372.16;;;35.82
65272;BMP280;51868;48.812;8.198;2022-08-14T12:49:37;99376.94;;;35.85
65272;BMP280;51868;48.812;8.198;2022-08-14T12:52:05;99370.09;;;35.80
65272;BMP280;51868;48.812;8.198;2022-08-14T12:54:34;99367.44;;;35.59
65272;BMP280;51868;48.812;8.198;2022-08-14T12:57:05;99365.94;;;35.60
65272;BMP280;51868;48.812;8.198;2022-08-14T12:59:32;99358.50;;;35.63
65272;BMP280;51868;48.812;8.198;2022-08-14T13:02:00;99365.44;;;35.66
65272;BMP280;51868;48.812;8.198;2022-08-14T13:04:30;99363.34;;;35.84
65272;BMP280;51868;48.812;8.198;2022-08-14T13:07:03;99369.22;;;36.01
65272;BMP280;51868;48.812;8.198;2022-08-14T13:09:34;99360.75;;;36.16
65272;BMP280;51868;48.812;8.198;2022-08-14T13:12:02;99360.25;;;36.14
65272;BMP280;51868;48.812;8.198;2022-08-14T13:14:30;99363.78;;;36.06
65272;BMP280;51868;48.812;8.198;2022-08-14T13:16:58;99364.63;;;36.04
65272;BMP280;51868;48.812;8.198;2022-08-14T13:19:26;99358.34;;;36.02
65272;BMP280;51868;48.812;8.198;2022-08-14T13:21:53;99365.06;;;35.90
65272;BMP280;51868;48.812;8.198;2022-08-14T13:24:21;99361.31;;;35.82
65272;BMP280;51868;48.812;8.198;2022-08-14T13:26:51;99357.72;;;35.82
65272;BMP280;51868;48.812;8.198;2022-08-14T13:29:20;99355.84;;;35.78
65272;BMP280;51868;48.812;8.198;2022-08-14T13:31:49;99354.00;;;35.83
65272;BMP280;51868;48.812;8.198;2022-08-14T13:34:22;99349.06;;;35.82
65272;BMP280;51868;48.812;8.198;2022-08-14T13:36:49;99352.16;;;35.88
65272;BMP280;51868;48.812;8.198;2022-08-14T13:39:17;99346.06;;;35.93
65272;BMP280;51868;48.812;8.198;2022-08-14T13:41:44;99336.19;;;35.90
65272;BMP280;51868;48.812;8.198;2022-08-14T13:44:13;99331.69;;;35.73
65272;BMP280;51868;48.812;8.198;2022-08-14T13:46:40;99331.94;;;35.52
65272;BMP280;51868;48.812;8.198;2022-08-14T13:49:08;99332.78;;;35.22
65272;BMP280;51868;48.812;8.198;2022-08-14T13:51:38;99334.75;;;35.15
65272;BMP280;51868;48.812;8.198;2022-08-14T13:54:06;99335.31;;;34.99
65272;BMP280;51868;48.812;8.198;2022-08-14T13:56:36;99342.81;;;34.85
65272;BMP280;51868;48.812;8.198;2022-08-14T13:59:04;99332.66;;;34.67
65272;BMP280;51868;48.812;8.198;2022-08-14T14:01:34;99344.31;;;34.45
65272;BMP280;51868;48.812;8.198;2022-08-14T14:04:03;99339.03;;;34.28
65272;BMP280;51868;48.812;8.198;2022-08-14T14:06:32;99339.31;;;34.24
65272;BMP280;51868;48.812;8.198;2022-08-14T14:09:02;99336.91;;;34.18
65272;BMP280;51868;48.812;8.198;2022-08-14T14:11:29;99336.03;;;34.20
65272;BMP280;51868;48.812;8.198;2022-08-14T14:13:57;99334.25;;;34.25
65272;BMP280;51868;48.812;8.198;2022-08-14T14:16:25;99327.22;;;34.33
65272;BMP280;51868;48.812;8.198;2022-08-14T14:18:54;99332.03;;;34.36
65272;BMP280;51868;48.812;8.198;2022-08-14T14:21:23;99325.03;;;34.33
65272;BMP280;51868;48.812;8.198;2022-08-14T14:23:51;99327.63;;;34.26
65272;BMP280;51868;48.812;8.198;2022-08-14T14:26:19;99321.22;;;34.26